Time;durP1;ratioP1;P1;durP2;ratioP2;P2;SDS_P1;SDS_P2;PMS_P1;PMS_P2;Temp;Humidity;BMP_temperature;BMP_pressure;BME280_temperature;BME280_humidity;BME280_pressure;Samples;Min_cycle;Max_cycle;Signal;HPM_P1;HPM_P2
2022/03/09 00:01:44;;;;;;;18.13;8.88;;;;;;;-1.26;nan;100911.91;5091039;28;20385;-73
2022/03/09 00:04:10;;;;;;;25.02;10.15;;;;;;;-1.13;nan;100932.31;5091302;28;20035;-73
2022/03/09 00:06:36;;;;;;;22.48;9.73;;;;;;;-1.59;nan;100870.00;5082128;28;20047;-73
2022/03/09 00:09:01;;;;;;;19.48;8.68;;;;;;;-1.25;nan;100934.22;5096496;28;20478;-72
2022/03/09 00:11:27;;;;;;;19.25;9.57;;;;;;;-1.22;nan;100938.28;5074381;28;20044;-72
2022/03/09 00:13:52;;;;;;;20.60;8.98;;;;;;;-1.28;nan;100926.72;5098766;28;20481;-72
2022/03/09 00:16:18;;;;;;;22.05;9.68;;;;;;;-1.31;nan;100935.56;5097598;28;20477;-72
2022/03/09 00:18:43;;;;;;;21.85;9.68;;;;;;;-1.34;nan;100916.94;5096674;28;20027;-72
2022/03/09 00:21:09;;;;;;;27.70;10.00;;;;;;;-1.45;nan;100917.88;5092775;28;20727;-72
2022/03/09 00:23:34;;;;;;;27.00;9.80;;;;;;;-1.33;nan;100936.66;5092105;28;20105;-72
2022/03/09 00:26:00;;;;;;;22.85;9.95;;;;;;;-1.48;nan;100919.91;5084853;28;20042;-70
2022/03/09 00:28:25;;;;;;;26.85;9.60;;;;;;;-1.51;nan;100923.56;5099496;28;20036;-70
2022/03/09 00:30:51;;;;;;;22.30;9.77;;;;;;;-1.46;nan;100933.50;5095444;28;20973;-69
2022/03/09 00:33:16;;;;;;;26.20;10.27;;;;;;;-1.57;nan;100921.53;5093079;28;20494;-69
2022/03/09 00:35:44;;;;;;;23.77;10.38;;;;;;;-1.46;nan;100943.81;5093060;28;20131;-70
2022/03/09 00:38:09;;;;;;;26.88;10.65;;;;;;;-1.57;nan;100948.16;5097702;28;20035;-69
2022/03/09 00:40:36;;;;;;;28.42;11.18;;;;;;;-1.69;nan;100933.72;5100053;28;20028;-69
2022/03/09 00:43:02;;;;;;;24.33;11.00;;;;;;;-1.58;nan;100943.13;5102682;28;20114;-69
2022/03/09 00:45:28;;;;;;;29.98;10.77;;;;;;;-1.59;nan;100947.47;5093029;28;20044;-69
2022/03/09 00:47:53;;;;;;;32.30;12.02;;;;;;;-1.97;nan;100891.38;5095375;28;20036;-70
2022/03/09 00:50:18;;;;;;;30.73;11.98;;;;;;;-1.77;nan;100921.47;5090680;28;20413;-71
2022/03/09 00:52:47;;;;;;;24.30;10.50;;;;;;;-1.81;nan;100925.28;5090447;28;20382;-68
2022/03/09 00:55:13;;;;;;;26.67;10.00;;;;;;;-1.76;nan;100937.78;5099166;28;20380;-70
2022/03/09 00:57:39;;;;;;;22.95;10.70;;;;;;;-1.80;nan;100934.63;5096902;28;20032;-70
2022/03/09 01:00:06;;;;;;;33.05;12.65;;;;;;;-1.83;nan;100931.50;5102463;28;20121;-70
2022/03/09 01:02:32;;;;;;;61.85;18.25;;;;;;;-1.86;nan;100922.25;5094389;28;20035;-70
2022/03/09 01:04:58;;;;;;;88.13;20.63;;;;;;;-1.89;nan;100913.94;5095129;28;20231;-71
2022/03/09 01:07:23;;;;;;;88.38;21.25;;;;;;;-1.87;nan;100922.38;5088971;28;20394;-70
2022/03/09 01:09:48;;;;;;;83.95;20.80;;;;;;;-1.94;nan;100910.03;5093544;28;20124;-73
2022/03/09 01:12:14;;;;;;;88.57;19.45;;;;;;;-1.82;nan;100926.22;5098545;28;20044;-71
2022/03/09 01:14:39;;;;;;;82.22;20.02;;;;;;;-1.90;nan;100910.56;5096816;28;20027;-73
2022/03/09 01:17:05;;;;;;;62.55;17.35;;;;;;;-1.90;nan;100910.56;5095785;28;20046;-72
2022/03/09 01:19:30;;;;;;;65.15;17.90;;;;;;;-1.80;nan;100926.06;5102051;28;20032;-72
2022/03/09 01:21:56;;;;;;;66.57;17.52;;;;;;;-2.10;nan;100877.91;5099601;28;20047;-72
2022/03/09 01:24:21;;;;;;;59.83;15.95;;;;;;;-1.83;nan;100932.31;5095835;28;20036;-71
2022/03/09 01:26:47;;;;;;;48.03;16.67;;;;;;;-1.81;nan;100922.69;5101037;28;20024;-71
2022/03/09 01:29:12;;;;;;;42.45;14.32;;;;;;;-1.82;nan;100923.66;5098228;28;20085;-71
2022/03/09 01:31:37;;;;;;;42.25;15.50;;;;;;;-1.79;nan;100925.97;5094807;28;20042;-71
2022/03/09 01:34:03;;;;;;;46.63;16.52;;;;;;;-1.74;nan;100928.16;5093198;28;20185;-71
2022/03/09 01:36:29;;;;;;;46.78;17.17;;;;;;;-1.76;nan;100919.72;5072802;28;20105;-71
2022/03/09 01:38:54;;;;;;;43.90;15.80;;;;;;;-1.78;nan;100924.19;5098989;28;20711;-71
2022/03/09 01:41:20;;;;;;;41.60;16.00;;;;;;;-1.81;nan;100932.19;5092256;28;20079;-72
2022/03/09 01:44:04;;;;;;;40.00;15.18;;;;;;;-1.84;nan;100916.97;5078970;28;20036;-71
2022/03/09 01:46:29;;;;;;;30.08;11.90;;;;;;;-1.78;nan;100922.41;5096339;28;20060;-69
2022/03/09 01:48:55;;;;;;;32.55;13.57;;;;;;;-1.77;nan;100936.16;5089976;28;20110;-71
2022/03/09 01:51:20;;;;;;;25.65;11.93;;;;;;;-1.82;nan;100933.13;5091992;28;20092;-71
2022/03/09 01:53:45;;;;;;;24.98;11.18;;;;;;;-1.86;nan;100937.75;5091011;28;20385;-71
2022/03/09 01:56:11;;;;;;;26.35;11.38;;;;;;;-1.99;nan;100927.66;5104609;28;20112;-71
2022/03/09 01:58:36;;;;;;;26.02;11.52;;;;;;;-2.04;nan;100914.31;5093365;28;20040;-71
2022/03/09 02:01:02;;;;;;;25.60;11.05;;;;;;;-1.99;nan;100922.50;5097168;28;20058;-71
2022/03/09 02:03:27;;;;;;;27.55;12.02;;;;;;;-2.10;nan;100908.88;5085583;28;20435;-72
2022/03/09 02:05:53;;;;;;;27.58;11.70;;;;;;;-2.04;nan;100937.53;5090525;28;20036;-70
2022/03/09 02:11:02;;;;;;;31.33;11.45;;;;;;;-2.07;nan;100948.13;5097387;28;20043;-71
2022/03/09 02:13:28;;;;;;;27.13;12.52;;;;;;;-2.45;nan;100903.13;5097296;28;20028;-71
2022/03/09 02:15:53;;;;;;;27.05;11.27;;;;;;;-2.28;nan;100937.03;5096490;28;20032;-70
2022/03/09 02:18:19;;;;;;;24.02;11.38;;;;;;;-2.38;nan;100942.94;5071241;28;20066;-71
2022/03/09 02:20:46;;;;;;;27.27;12.15;;;;;;;-2.37;nan;100939.44;5085518;28;20393;-70
2022/03/09 02:23:11;;;;;;;27.50;11.45;;;;;;;-2.31;nan;100942.44;5090156;28;20036;-71
2022/03/09 02:25:37;;;;;;;29.48;10.85;;;;;;;-2.35;nan;100928.97;5089161;28;20040;-70
2022/03/09 02:28:02;;;;;;;28.10;11.77;;;;;;;-2.42;nan;100931.25;5089349;28;20032;-70
2022/03/09 02:30:28;;;;;;;28.08;11.02;;;;;;;-2.31;nan;100947.59;5102472;28;20374;-70
2022/03/09 02:32:53;;;;;;;26.60;11.25;;;;;;;-2.44;nan;100940.88;5090853;28;20043;-71
2022/03/09 02:35:19;;;;;;;27.45;12.27;;;;;;;-2.41;nan;100945.78;5093951;28;20071;-72
2022/03/09 02:37:45;;;;;;;26.17;11.27;;;;;;;-2.80;nan;100899.13;5113622;28;20074;-71
2022/03/09 02:40:13;;;;;;;27.60;11.68;;;;;;;-2.49;nan;100943.03;5106517;28;20032;-71
2022/03/09 02:42:39;;;;;;;26.88;11.05;;;;;;;-2.40;nan;100949.97;5104131;28;20032;-72
2022/03/09 02:45:06;;;;;;;27.77;12.82;;;;;;;-2.38;nan;100950.69;5077474;28;20028;-70
2022/03/09 02:47:32;;;;;;;27.38;11.45;;;;;;;-2.47;nan;100930.81;5083600;28;20054;-70
2022/03/09 02:49:58;;;;;;;25.35;11.32;;;;;;;-2.32;nan;100944.22;5092899;28;20035;-70
2022/03/09 02:52:23;;;;;;;26.35;11.80;;;;;;;-2.38;nan;100935.19;5093459;28;20724;-70
2022/03/09 02:54:48;;;;;;;27.70;11.48;;;;;;;-2.30;nan;100944.88;5084510;28;20020;-70
2022/03/09 02:57:14;;;;;;;27.52;12.25;;;;;;;-2.38;nan;100932.63;5093082;28;20135;-71
2022/03/09 02:59:40;;;;;;;30.10;12.95;;;;;;;-2.41;nan;100932.06;5095417;28;20126;-70
2022/03/09 03:02:05;;;;;;;32.85;13.80;;;;;;;-2.35;nan;100934.13;5079741;28;20151;-70
2022/03/09 03:04:31;;;;;;;29.63;12.68;;;;;;;-2.33;nan;100934.00;5082048;28;20032;-70
2022/03/09 03:06:56;;;;;;;26.75;12.07;;;;;;;-2.42;nan;100930.41;5102703;28;20043;-69
2022/03/09 03:09:22;;;;;;;30.38;12.63;;;;;;;-2.38;nan;100939.56;5094697;28;20811;-69
2022/03/09 03:11:47;;;;;;;27.40;11.73;;;;;;;-2.42;nan;100936.41;5099910;28;20148;-69
2022/03/09 03:14:13;;;;;;;26.65;11.35;;;;;;;-2.43;nan;100926.22;5080155;28;20039;-70
2022/03/09 03:16:38;;;;;;;26.77;11.95;;;;;;;-2.46;nan;100922.13;5076172;28;20443;-69
2022/03/09 03:19:04;;;;;;;25.00;11.80;;;;;;;-2.33;nan;100934.00;5092859;28;20039;-70
2022/03/09 03:21:29;;;;;;;28.40;11.68;;;;;;;-2.30;nan;100936.31;5092423;28;20039;-70
2022/03/09 03:23:55;;;;;;;26.40;11.52;;;;;;;-2.34;nan;100928.03;5105011;28;20074;-69
2022/03/09 03:26:20;;;;;;;29.30;12.23;;;;;;;-2.39;nan;100925.84;5094742;28;20553;-70
2022/03/09 03:28:46;;;;;;;28.67;11.88;;;;;;;-2.41;nan;100926.91;5097026;28;20054;-70
2022/03/09 03:31:11;;;;;;;28.48;11.95;;;;;;;-2.40;nan;100937.09;5108758;28;20509;-70
2022/03/09 03:33:36;;;;;;;28.05;12.82;;;;;;;-2.38;nan;100930.03;5098157;28;20423;-69
2022/03/09 03:36:02;;;;;;;30.67;12.52;;;;;;;-2.37;nan;100933.44;5099357;28;20027;-70
2022/03/09 03:38:28;;;;;;;26.45;12.65;;;;;;;-2.52;nan;100922.63;5099090;28;20109;-70
2022/03/09 03:40:53;;;;;;;28.10;12.55;;;;;;;-2.57;nan;100917.03;5105927;28;20031;-70
2022/03/09 03:43:18;;;;;;;27.08;12.85;;;;;;;-2.40;nan;100946.59;5083053;28;20036;-69
2022/03/09 03:45:44;;;;;;;28.83;12.20;;;;;;;-2.49;nan;100937.03;5094131;28;20047;-69
2022/03/09 03:48:09;;;;;;;33.67;12.80;;;;;;;-2.41;nan;100943.19;5087899;28;20043;-69
2022/03/09 03:50:36;;;;;;;28.35;12.82;;;;;;;-2.46;nan;100937.59;5090215;28;20606;-72
2022/03/09 03:53:01;;;;;;;27.30;11.98;;;;;;;-2.39;nan;100945.66;5079461;28;20035;-69
2022/03/09 03:55:27;;;;;;;25.50;11.82;;;;;;;-2.38;nan;100948.09;5075024;28;20385;-69
2022/03/09 03:57:52;;;;;;;28.15;11.68;;;;;;;-2.40;nan;100934.50;5104047;28;20047;-69
2022/03/09 04:00:18;;;;;;;24.60;11.77;;;;;;;-2.33;nan;100939.16;5099385;28;20047;-70
2022/03/09 04:02:43;;;;;;;32.03;12.05;;;;;;;-2.26;nan;100953.19;5094020;28;20036;-69
2022/03/09 04:05:09;;;;;;;26.98;12.07;;;;;;;-2.32;nan;100930.47;5103557;28;20461;-70
2022/03/09 04:07:35;;;;;;;29.20;12.65;;;;;;;-2.60;nan;100902.66;5099751;28;20051;-70
2022/03/09 04:10:00;;;;;;;30.75;12.88;;;;;;;-2.28;nan;100949.91;5094762;28;20373;-71
2022/03/09 04:12:26;;;;;;;26.25;12.25;;;;;;;-2.28;nan;100950.72;5092978;28;20040;-70
2022/03/09 04:14:52;;;;;;;25.38;10.77;;;;;;;-2.28;nan;100945.56;5092200;28;20036;-70
2022/03/09 04:17:18;;;;;;;21.75;11.43;;;;;;;-2.29;nan;100937.97;5098705;28;20101;-70
2022/03/09 04:19:43;;;;;;;22.20;10.75;;;;;;;-2.35;nan;100928.97;5096476;28;20729;-69
2022/03/09 04:22:08;;;;;;;23.38;10.82;;;;;;;-2.36;nan;100922.19;5104082;28;20089;-72
2022/03/09 04:24:34;;;;;;;26.98;11.20;;;;;;;-2.25;nan;100934.19;5103163;28;20032;-70
2022/03/09 04:26:59;;;;;;;26.92;12.48;;;;;;;-2.29;nan;100925.88;5098974;28;20081;-70
2022/03/09 04:29:25;;;;;;;23.88;11.70;;;;;;;-2.43;nan;100893.50;5081898;28;20020;-70
2022/03/09 04:31:50;;;;;;;29.35;12.48;;;;;;;-2.19;nan;100942.22;5098097;28;21366;-70
2022/03/09 04:34:16;;;;;;;26.58;12.00;;;;;;;-2.23;nan;100921.97;5090221;28;20130;-70
2022/03/09 04:36:41;;;;;;;34.72;12.50;;;;;;;-2.14;nan;100934.91;5099584;28;20074;-69
2022/03/09 04:39:06;;;;;;;24.20;11.10;;;;;;;-2.17;nan;100942.09;5101799;28;20089;-70
2022/03/09 04:41:32;;;;;;;24.83;11.57;;;;;;;-2.24;nan;100933.25;5105712;28;20043;-70
2022/03/09 04:43:57;;;;;;;29.92;11.88;;;;;;;-2.23;nan;100930.53;5098347;28;20039;-71
2022/03/09 04:46:23;;;;;;;27.20;12.10;;;;;;;-2.24;nan;100923.75;5097740;28;20032;-69
2022/03/09 04:48:52;;;;;;;28.50;12.13;;;;;;;-2.12;nan;100942.53;5096186;28;20038;-70
2022/03/09 04:51:17;;;;;;;28.15;11.15;;;;;;;-2.14;nan;100934.91;5102994;28;20123;-70
2022/03/09 04:53:43;;;;;;;26.42;11.50;;;;;;;-2.15;nan;100940.22;5094757;28;20118;-69
2022/03/09 04:56:08;;;;;;;24.92;11.57;;;;;;;-2.17;nan;100921.47;5078936;28;20691;-69
2022/03/09 04:58:34;;;;;;;24.83;10.75;;;;;;;-2.21;nan;100923.47;5093710;28;20150;-72
2022/03/09 05:00:59;;;;;;;22.40;9.95;;;;;;;-2.15;nan;100937.63;5094097;28;20066;-71
2022/03/09 05:03:25;;;;;;;22.35;9.90;;;;;;;-2.23;nan;100937.44;5090466;28;20138;-71
2022/03/09 05:05:50;;;;;;;22.27;10.70;;;;;;;-2.20;nan;100944.97;5093646;28;20036;-71
2022/03/09 05:08:17;;;;;;;26.70;10.48;;;;;;;-2.57;nan;100891.25;5090019;28;20051;-71
2022/03/09 05:10:42;;;;;;;27.92;10.73;;;;;;;-2.34;nan;100933.19;5090892;28;20039;-70
2022/03/09 05:13:08;;;;;;;21.85;10.57;;;;;;;-2.25;nan;100947.91;5095357;28;20508;-70
2022/03/09 05:15:33;;;;;;;27.17;10.98;;;;;;;-2.33;nan;100941.75;5099193;28;20035;-72
2022/03/09 05:17:59;;;;;;;26.05;11.43;;;;;;;-2.54;nan;100924.50;5096187;28;20024;-70
2022/03/09 05:20:24;;;;;;;24.00;10.77;;;;;;;-2.28;nan;100958.47;5074185;28;20036;-70
2022/03/09 05:22:51;;;;;;;25.45;10.77;;;;;;;-2.28;nan;100952.50;5076619;28;20572;-71
2022/03/09 05:25:17;;;;;;;21.63;10.45;;;;;;;-2.30;nan;100952.63;5080050;28;20127;-71
2022/03/09 05:27:43;;;;;;;27.05;10.75;;;;;;;-2.34;nan;100938.34;5098674;28;20049;-69
2022/03/09 05:30:09;;;;;;;29.60;11.23;;;;;;;-2.24;nan;100946.16;5097478;28;20036;-68
2022/03/09 05:32:41;;;;;;;22.83;10.63;;;;;;;-2.22;nan;100949.41;5098040;28;20158;-70
2022/03/09 05:35:09;;;;;;;25.95;11.52;;;;;;;-2.21;nan;100957.00;5086813;28;20031;-69
2022/03/09 05:37:42;;;;;;;26.40;11.93;;;;;;;-2.15;nan;100953.13;5080503;28;20429;-69
2022/03/09 05:40:09;;;;;;;27.23;10.82;;;;;;;-2.06;nan;100942.03;5100664;28;20028;-70
2022/03/09 05:42:35;;;;;;;26.60;11.30;;;;;;;-2.07;nan;100932.63;5102120;28;20036;-69
2022/03/09 05:45:01;;;;;;;29.88;10.95;;;;;;;-2.05;nan;100938.50;5099513;28;20062;-69
2022/03/09 05:47:27;;;;;;;33.70;12.90;;;;;;;-2.08;nan;100938.75;5095152;28;20031;-68
2022/03/09 05:49:52;;;;;;;26.02;12.25;;;;;;;-2.15;nan;100924.75;5109323;28;20051;-67
2022/03/09 05:52:18;;;;;;;28.00;11.02;;;;;;;-2.06;nan;100942.03;5084445;28;20077;-67
2022/03/09 05:54:45;;;;;;;28.05;12.35;;;;;;;-2.02;nan;100961.44;5089946;28;20089;-67
2022/03/09 05:57:12;;;;;;;32.42;12.18;;;;;;;-2.00;nan;100958.75;5109082;28;20041;-68
2022/03/09 05:59:37;;;;;;;28.27;11.55;;;;;;;-1.91;nan;100964.91;5112473;28;20049;-69
2022/03/09 06:02:03;;;;;;;29.02;12.32;;;;;;;-1.86;nan;100970.50;5100043;28;20036;-70
2022/03/09 06:04:28;;;;;;;24.98;10.80;;;;;;;-1.78;nan;100980.97;5088924;28;20032;-69
2022/03/09 06:06:53;;;;;;;39.55;13.57;;;;;;;-1.75;nan;100978.13;5080745;28;20042;-68
2022/03/09 06:09:19;;;;;;;35.67;15.32;;;;;;;-2.11;nan;100913.19;5090120;28;20450;-68
2022/03/09 06:11:44;;;;;;;30.85;13.27;;;;;;;-1.63;nan;100969.34;5085714;28;20063;-69
2022/03/09 06:14:10;;;;;;;32.38;13.02;;;;;;;-1.54;nan;100970.31;5090167;28;20482;-70
2022/03/09 06:16:36;;;;;;;30.98;13.18;;;;;;;-1.55;nan;100969.50;5094225;28;20051;-69
2022/03/09 06:19:01;;;;;;;28.23;11.88;;;;;;;-1.59;nan;100960.38;5099124;28;20112;-69
2022/03/09 06:21:27;;;;;;;33.58;12.75;;;;;;;-1.50;nan;100971.69;5093921;28;20032;-69
2022/03/09 06:23:52;;;;;;;30.50;13.93;;;;;;;-1.41;nan;100986.41;5097815;28;20043;-69
2022/03/09 06:26:17;;;;;;;33.72;13.15;;;;;;;-1.45;nan;100974.69;5092507;28;20126;-72
2022/03/09 06:28:43;;;;;;;37.97;16.15;;;;;;;-1.41;nan;100985.56;5095129;28;20420;-74
2022/03/09 06:31:08;;;;;;;38.92;19.55;;;;;;;-1.39;nan;100978.50;5073234;28;20385;-74
2022/03/09 06:33:34;;;;;;;36.72;14.57;;;;;;;-1.61;nan;100946.78;5100118;28;20482;-72
2022/03/09 06:35:59;;;;;;;34.92;15.32;;;;;;;-1.52;nan;100950.34;5109419;28;20437;-75
2022/03/09 06:38:25;;;;;;;25.48;11.52;;;;;;;-1.31;nan;100989.81;5089098;28;20038;-71
2022/03/09 06:40:51;;;;;;;25.85;12.13;;;;;;;-1.30;nan;100988.06;5088374;28;20031;-72
2022/03/09 06:43:16;;;;;;;24.38;11.68;;;;;;;-1.35;nan;100980.69;5098786;28;20533;-70
2022/03/09 06:45:42;;;;;;;26.52;12.07;;;;;;;-1.35;nan;100977.31;5086068;28;20035;-71
2022/03/09 06:48:08;;;;;;;28.20;12.40;;;;;;;-1.33;nan;100988.31;5095465;28;20032;-75
2022/03/09 06:50:34;;;;;;;26.52;12.43;;;;;;;-1.39;nan;100973.34;5100993;28;20032;-74
2022/03/09 06:52:59;;;;;;;28.05;12.35;;;;;;;-1.41;nan;100970.06;5108709;28;20035;-74
2022/03/09 06:55:25;;;;;;;31.65;12.98;;;;;;;-1.35;nan;100982.47;5100760;28;20185;-74
2022/03/09 06:57:50;;;;;;;25.83;12.38;;;;;;;-1.54;nan;100942.72;5078234;28;20089;-74
2022/03/09 07:00:16;;;;;;;27.27;12.75;;;;;;;-1.22;nan;100993.38;5096137;28;20407;-74
2022/03/09 07:02:43;;;;;;;34.00;13.85;;;;;;;-1.30;nan;100980.31;5109585;28;20036;-73
2022/03/09 07:05:09;;;;;;;29.08;12.57;;;;;;;-1.15;nan;100994.50;5086071;28;20042;-73
2022/03/09 07:07:37;;;;;;;31.77;13.50;;;;;;;-1.06;nan;100985.09;5102839;28;20024;-74
2022/03/09 07:10:03;;;;;;;30.63;12.93;;;;;;;-1.28;nan;100960.31;5106546;28;20031;-72
2022/03/09 07:12:29;;;;;;;28.70;12.27;;;;;;;-1.03;nan;100982.25;5105389;28;20039;-74
2022/03/09 07:14:54;;;;;;;29.13;12.60;;;;;;;-0.93;nan;100990.84;5088077;28;20031;-73
2022/03/09 07:17:19;;;;;;;29.02;12.05;;;;;;;-0.97;nan;100967.97;5104332;28;20123;-74
2022/03/09 07:19:45;;;;;;;35.80;14.23;;;;;;;-0.77;nan;100997.22;5089896;28;20401;-73
2022/03/09 07:22:10;;;;;;;28.85;12.85;;;;;;;-0.74;nan;100995.19;5097383;28;20032;-74
2022/03/09 07:24:36;;;;;;;28.23;12.07;;;;;;;-0.70;nan;100993.13;5081315;28;20036;-74
2022/03/09 07:27:02;;;;;;;27.52;12.35;;;;;;;-0.72;nan;100989.88;5090272;28;20032;-72
2022/03/09 07:29:28;;;;;;;28.15;11.60;;;;;;;-0.59;nan;100997.38;5086856;28;20032;-72
2022/03/09 07:31:53;;;;;;;29.98;11.95;;;;;;;-0.49;nan;101008.50;5096722;28;20762;-73
2022/03/09 07:34:22;;;;;;;33.47;13.93;;;;;;;-0.40;nan;101009.47;5092568;28;20024;-73
2022/03/09 07:36:48;;;;;;;31.67;12.90;;;;;;;-0.50;nan;100983.63;5073728;28;20043;-72
2022/03/09 07:39:14;;;;;;;25.02;10.77;;;;;;;-0.32;nan;101001.81;5084616;28;20039;-72
2022/03/09 07:41:39;;;;;;;32.13;12.27;;;;;;;-0.28;nan;101005.78;5093100;28;20028;-72
2022/03/09 07:44:05;;;;;;;91.60;21.25;;;;;;;-0.28;nan;100995.41;5089662;28;20525;-71
2022/03/09 07:46:30;;;;;;;32.67;13.63;;;;;;;-0.28;nan;100978.13;5079960;28;20489;-71
2022/03/09 07:48:56;;;;;;;31.65;11.88;;;;;;;-0.15;nan;100989.94;5099005;28;20059;-72
2022/03/09 07:51:21;;;;;;;34.42;12.63;;;;;;;-0.05;nan;100993.31;5103822;28;20039;-74
2022/03/09 07:53:46;;;;;;;38.63;12.90;;;;;;;-0.19;nan;100957.50;5097919;28;20119;-74
2022/03/09 07:56:12;;;;;;;26.55;11.15;;;;;;;0.14;nan;100992.44;5086360;28;20656;-71
2022/03/09 07:58:38;;;;;;;24.08;9.15;;;;;;;0.16;nan;100993.91;5091377;28;20051;-71
2022/03/09 08:01:05;;;;;;;17.63;8.88;;;;;;;0.28;nan;101004.09;5096767;28;20045;-72
2022/03/09 08:03:31;;;;;;;23.20;9.93;;;;;;;0.19;nan;100988.47;5093630;28;20024;-75
2022/03/09 08:05:57;;;;;;;18.55;7.15;;;;;;;0.34;nan;101000.97;5091042;28;20097;-75
2022/03/09 08:08:23;;;;;;;15.85;8.02;;;;;;;0.44;nan;101008.69;5094769;28;20439;-72
2022/03/09 08:10:49;;;;;;;19.80;8.05;;;;;;;0.30;nan;100974.50;5107165;28;20089;-72
2022/03/09 08:13:14;;;;;;;15.32;7.45;;;;;;;0.52;nan;100995.81;5093429;28;20023;-72
2022/03/09 08:15:40;;;;;;;16.77;7.43;;;;;;;0.62;nan;101006.94;5096166;28;20035;-72
2022/03/09 08:18:05;;;;;;;16.42;6.60;;;;;;;0.54;nan;100979.16;5100249;28;20042;-72
2022/03/09 08:20:30;;;;;;;13.60;6.90;;;;;;;0.84;nan;101019.50;5101783;28;20492;-73
2022/03/09 08:22:56;;;;;;;33.88;10.43;;;;;;;0.92;nan;101010.19;5077139;28;20051;-74
2022/03/09 08:25:21;;;;;;;16.02;6.35;;;;;;;0.88;nan;101007.06;5072559;28;20028;-75
2022/03/09 08:27:47;;;;;;;12.38;5.13;;;;;;;0.96;nan;101006.31;5097020;28;20089;-75
2022/03/09 08:30:12;;;;;;;11.38;5.82;;;;;;;0.95;nan;100997.72;5095590;28;20054;-75
2022/03/09 08:32:38;;;;;;;10.68;5.50;;;;;;;1.15;nan;101010.56;5091769;28;20035;-73
2022/03/09 08:35:04;;;;;;;12.43;5.70;;;;;;;1.17;nan;101013.81;5097361;28;20074;-73
2022/03/09 08:37:29;;;;;;;14.30;6.30;;;;;;;1.21;nan;101003.00;5091001;28;20040;-73
2022/03/09 08:39:55;;;;;;;12.38;6.13;;;;;;;1.22;nan;101011.59;5094714;28;20036;-75
2022/03/09 08:42:20;;;;;;;12.63;5.00;;;;;;;1.26;nan;101000.78;5096052;28;20116;-72
2022/03/09 08:44:46;;;;;;;11.90;5.60;;;;;;;1.34;nan;101007.00;5091286;28;20075;-73
2022/03/09 08:47:11;;;;;;;15.93;5.95;;;;;;;1.29;nan;100981.50;5100636;28;20025;-74
2022/03/09 08:49:39;;;;;;;15.52;4.95;;;;;;;1.43;nan;100996.53;5090927;28;20035;-74
2022/03/09 08:52:06;;;;;;;9.63;5.00;;;;;;;1.52;nan;101005.19;5076483;28;20036;-75
2022/03/09 08:54:32;;;;;;;11.73;5.43;;;;;;;1.56;nan;100997.94;5096918;28;20024;-73
2022/03/09 08:56:57;;;;;;;12.25;5.65;;;;;;;1.52;nan;100991.41;5089094;28;20054;-75
2022/03/09 08:59:23;;;;;;;13.75;5.78;;;;;;;1.68;nan;101001.94;5081262;28;20048;-75
2022/03/09 09:01:49;;;;;;;8.45;4.47;;;;;;;1.80;nan;100997.31;5072372;28;20762;-76
2022/03/09 09:04:16;;;;;;;12.13;4.85;;;;;;;1.79;nan;100988.66;5072485;28;20431;-73
2022/03/09 09:06:42;;;;;;;13.55;6.30;;;;;;;1.84;nan;100989.03;5077495;28;20398;-75
2022/03/09 09:09:08;;;;;;;14.30;6.82;;;;;;;1.81;nan;100993.72;5075440;28;20031;-72
2022/03/09 09:11:33;;;;;;;24.70;7.20;;;;;;;1.87;nan;100991.34;5081189;28;20032;-73
2022/03/09 09:13:59;;;;;;;13.02;5.72;;;;;;;1.96;nan;101007.75;5076191;28;20483;-73
2022/03/09 09:16:24;;;;;;;8.13;4.28;;;;;;;1.90;nan;100998.81;5070415;28;20149;-73
2022/03/09 09:18:50;;;;;;;10.50;5.60;;;;;;;2.07;nan;101006.69;5071691;28;20060;-72
2022/03/09 09:21:16;;;;;;;10.55;4.53;;;;;;;2.18;nan;101016.84;5072002;28;20052;-73
2022/03/09 09:23:41;;;;;;;11.57;4.85;;;;;;;2.13;nan;100993.91;5083267;28;20052;-73
2022/03/09 09:26:07;;;;;;;8.75;4.38;;;;;;;2.26;nan;101006.47;5074314;28;20517;-72
2022/03/09 09:28:32;;;;;;;10.70;4.30;;;;;;;2.33;nan;101010.09;5083455;28;20051;-72
2022/03/09 09:30:57;;;;;;;10.35;5.90;;;;;;;2.36;nan;101016.75;5078668;28;20393;-71
2022/03/09 09:33:23;;;;;;;10.93;5.22;;;;;;;2.46;nan;101025.22;5071570;28;20508;-72
2022/03/09 09:35:48;;;;;;;8.95;4.65;;;;;;;2.37;nan;101017.56;5071868;28;20029;-72
2022/03/09 09:38:15;;;;;;;8.25;4.32;;;;;;;2.50;nan;101026.56;5081084;28;20443;-72
2022/03/09 09:40:45;;;;;;;10.52;4.75;;;;;;;2.44;nan;101031.56;5080482;28;20192;-71
2022/03/09 09:43:14;;;;;;;11.45;5.70;;;;;;;2.45;nan;101025.41;5072908;28;20072;-71
2022/03/09 09:45:41;;;;;;;14.35;5.47;;;;;;;2.47;nan;101039.06;5081111;28;20395;-72
2022/03/09 09:48:07;;;;;;;14.77;5.57;;;;;;;2.45;nan;101031.41;5081577;28;20119;-72
2022/03/09 09:50:35;;;;;;;11.25;4.93;;;;;;;2.29;nan;100990.56;5074808;28;20044;-74
2022/03/09 09:53:06;;;;;;;13.27;4.90;;;;;;;2.47;nan;101024.28;5081476;28;20032;-72
2022/03/09 09:55:32;;;;;;;14.38;5.20;;;;;;;2.52;nan;101034.22;5072072;28;20032;-73
2022/03/09 09:57:58;;;;;;;8.65;4.30;;;;;;;2.52;nan;101029.00;5070611;28;20029;-72
2022/03/09 10:00:24;;;;;;;17.15;5.57;;;;;;;2.60;nan;101036.81;5091672;28;20237;-73
2022/03/09 10:02:52;;;;;;;13.65;4.97;;;;;;;2.58;nan;101041.38;5091208;28;20050;-72
2022/03/09 10:05:19;;;;;;;20.13;5.40;;;;;;;2.60;nan;101042.03;5073591;28;20036;-71
2022/03/09 10:08:03;;;;;;;18.05;5.80;;;;;;;2.58;nan;101037.97;5079086;28;20050;-72
2022/03/09 10:10:37;;;;;;;18.33;5.43;;;;;;;2.61;nan;101045.44;5102916;28;20044;-73
2022/03/09 10:13:20;;;;;;;12.75;5.07;;;;;;;2.47;nan;101028.66;5090153;28;20043;-73
2022/03/09 10:15:48;;;;;;;13.00;5.63;;;;;;;2.28;nan;101008.94;5112521;28;20028;-71
2022/03/09 10:18:19;;;;;;;9.95;4.50;;;;;;;2.55;nan;101037.28;5098082;28;20512;-72
2022/03/09 10:20:47;;;;;;;11.52;4.82;;;;;;;2.48;nan;101030.28;5087433;28;20040;-75
2022/03/09 10:23:13;;;;;;;8.55;4.35;;;;;;;2.34;nan;101000.50;5111837;28;20034;-73
2022/03/09 10:25:40;;;;;;;12.13;5.13;;;;;;;2.59;nan;101037.81;5101347;28;20077;-72
2022/03/09 10:28:11;;;;;;;14.63;4.75;;;;;;;2.61;nan;101017.69;5101197;28;20083;-73
2022/03/09 10:30:39;;;;;;;13.57;6.18;;;;;;;2.56;nan;101027.72;5101670;28;20036;-71
2022/03/09 10:33:07;;;;;;;19.85;6.40;;;;;;;2.54;nan;101033.09;5100986;28;20043;-72
2022/03/09 10:35:33;;;;;;;14.15;5.50;;;;;;;2.50;nan;101034.34;5083583;28;20032;-72
2022/03/09 10:38:05;;;;;;;11.60;5.35;;;;;;;2.45;nan;101026.22;5096844;28;20435;-72
2022/03/09 10:40:32;;;;;;;10.10;4.65;;;;;;;2.41;nan;101018.88;5111356;28;20040;-72
2022/03/09 10:43:13;;;;;;;9.15;4.20;;;;;;;2.50;nan;101021.34;5091292;28;20442;-73
2022/03/09 10:45:58;;;;;;;13.80;5.70;;;;;;;2.58;nan;101028.38;5082730;28;20035;-74
2022/03/09 10:48:23;;;;;;;9.75;4.10;;;;;;;2.54;nan;101016.69;5104685;28;20054;-73
2022/03/09 10:50:53;;;;;;;19.02;6.05;;;;;;;2.65;nan;101021.56;5115191;28;20047;-73
2022/03/09 10:53:18;;;;;;;14.77;5.15;;;;;;;2.38;nan;100970.63;5105204;28;20043;-72
2022/03/09 10:55:44;;;;;;;8.73;4.13;;;;;;;2.64;nan;100995.75;5109217;28;20027;-72
2022/03/09 10:58:18;;;;;;;7.80;3.78;;;;;;;2.85;nan;101021.28;5111896;28;20506;-72
2022/03/09 11:00:55;;;;;;;10.43;3.78;;;;;;;2.66;nan;100986.81;5116945;28;20024;-72
2022/03/09 11:03:26;;;;;;;13.45;4.40;;;;;;;2.56;nan;100970.50;5084299;28;20452;-72
2022/03/09 11:06:01;;;;;;;8.73;4.00;;;;;;;2.88;nan;101011.41;5095525;28;20071;-72
2022/03/09 11:08:34;;;;;;;10.55;3.72;;;;;;;2.64;nan;100972.34;5096721;28;20119;-73
2022/03/09 11:11:00;;;;;;;7.30;3.92;;;;;;;2.89;nan;101004.41;5107934;28;20024;-73
2022/03/09 11:13:28;;;;;;;15.75;4.72;;;;;;;2.87;nan;100995.94;5105610;28;20027;-72
2022/03/09 11:15:54;;;;;;;11.77;4.07;;;;;;;2.91;nan;100985.06;5097817;28;20024;-73
2022/03/09 11:18:22;;;;;;;7.65;3.95;;;;;;;2.90;nan;100995.66;5083739;28;20455;-71
2022/03/09 11:20:49;;;;;;;9.60;3.65;;;;;;;2.98;nan;101001.66;5097136;28;20028;-73
2022/03/09 11:23:16;;;;;;;9.77;4.07;;;;;;;3.00;nan;101008.50;5103354;28;20031;-71
2022/03/09 11:25:56;;;;;;;7.40;3.47;;;;;;;2.95;nan;100985.56;5096549;28;20043;-71
2022/03/09 11:28:29;;;;;;;13.48;4.40;;;;;;;3.00;nan;100982.50;5096920;28;20024;-73
2022/03/09 11:30:57;;;;;;;10.55;3.90;;;;;;;2.95;nan;100975.97;5101675;28;20028;-73